Time;durP1;ratioP1;P1;durP2;ratioP2;P2;SDS_P1;SDS_P2;PMS_P1;PMS_P2;Temp;Humidity;BMP_temperature;BMP_pressure;BME280_temperature;BME280_humidity;BME280_pressure;Samples;Min_cycle;Max_cycle;Signal;HPM_P1;HPM_P2
2023/09/22 00:06:27;;;;;;;;;;;;;;;14.53;100.00;96627.19;18564021;31;20090;-56
2023/09/22 00:16:30;;;;;;;2.90;0.45;;;;;;;14.50;100.00;96620.47;18549363;32;19944;-57
2023/09/22 00:26:32;;;;;;;1.77;0.30;;;;;;;14.40;100.00;96627.03;18562713;32;20381;-57
2023/09/22 00:36:35;;;;;;;1.55;0.40;;;;;;;14.30;100.00;96627.34;18562228;32;20376;-57
2023/09/22 00:46:37;;;;;;;3.15;0.70;;;;;;;14.23;100.00;96611.50;18561312;32;20381;-57
2023/09/22 00:56:40;;;;;;;4.90;0.70;;;;;;;14.26;100.00;96625.59;18546985;32;20052;-57
2023/09/22 01:06:43;;;;;;;3.03;0.40;;;;;;;14.24;100.00;96612.31;18560747;32;20393;-57
2023/09/22 01:16:46;;;;;;;4.60;0.50;;;;;;;14.26;100.00;96631.03;18533402;32;20053;-57
2023/09/22 01:26:48;;;;;;;6.87;0.57;;;;;;;14.20;100.00;96623.03;18568793;32;20056;-57
2023/09/22 01:36:50;;;;;;;2.62;0.50;;;;;;;14.16;100.00;96624.78;18559256;32;20067;-57
2023/09/22 01:46:53;;;;;;;0.60;0.40;;;;;;;14.15;100.00;96620.47;18545192;32;20053;-57
2023/09/22 01:56:55;;;;;;;6.00;0.55;;;;;;;14.10;100.00;96609.75;18557736;31;20052;-57
2023/09/22 02:06:58;;;;;;;2.10;0.70;;;;;;;14.09;100.00;96601.91;18557546;32;20076;-57
2023/09/22 02:17:01;;;;;;;2.23;0.67;;;;;;;14.07;100.00;96594.87;18570817;32;20417;-57
2023/09/22 02:27:05;;;;;;;2.97;0.80;;;;;;;14.11;100.00;96616.78;18570090;32;20076;-57
2023/09/22 02:48:19;;;;;;;2.40;0.50;;;;;;;14.13;100.00;96606.41;18546377;32;20353;-57
2023/09/22 02:58:23;;;;;;;2.58;0.50;;;;;;;14.00;100.00;96616.28;18568199;32;20093;-57
2023/09/22 03:08:25;;;;;;;2.75;0.62;;;;;;;13.95;100.00;96593.91;18567682;32;20079;-57
2023/09/22 03:18:28;;;;;;;1.42;0.70;;;;;;;13.96;100.00;96596.28;18566923;32;20060;-56
2023/09/22 03:28:30;;;;;;;5.55;0.57;;;;;;;13.98;100.00;96593.28;18566421;32;20056;-57
2023/09/22 03:38:33;;;;;;;3.70;0.70;;;;;;;14.01;100.00;96638.84;18565859;32;20095;-56
2023/09/22 03:48:39;;;;;;;2.63;0.67;;;;;;;14.01;100.00;96627.97;18564202;32;20064;-56
2023/09/22 03:58:42;;;;;;;2.75;0.62;;;;;;;13.98;100.00;96599.50;18537169;32;20049;-56
2023/09/22 04:08:45;;;;;;;1.48;0.47;;;;;;;13.88;100.00;96603.34;18563833;32;20057;-57
2023/09/22 04:18:54;;;;;;;2.10;0.60;;;;;;;13.96;100.00;96614.53;18549118;32;20065;-57
2023/09/22 04:28:57;;;;;;;1.30;0.43;;;;;;;13.92;100.00;96651.59;18562766;32;20063;-56
2023/09/22 04:39:00;;;;;;;5.83;0.80;;;;;;;13.95;100.00;96649.06;18561972;32;20368;-56
2023/09/22 04:49:03;;;;;;;5.80;1.00;;;;;;;13.98;100.00;96672.09;18562174;32;20100;-56
2023/09/22 04:59:07;;;;;;;1.55;0.75;;;;;;;14.01;100.00;96704.84;18546367;32;20107;-56
2023/09/22 05:09:11;;;;;;;1.85;0.40;;;;;;;13.96;100.00;96701.50;18560773;32;20436;-56
2023/09/22 05:19:14;;;;;;;4.50;0.60;;;;;;;13.97;100.00;96703.09;18546552;32;20361;-56
2023/09/22 05:29:17;;;;;;;2.42;0.88;;;;;;;14.01;100.00;96706.78;18560082;32;20514;-55
2023/09/22 05:39:26;;;;;;;4.35;0.60;;;;;;;14.00;100.00;96705.19;18559718;32;20104;-56
2023/09/22 05:49:29;;;;;;;6.20;1.05;;;;;;;13.96;100.00;96701.50;18559366;32;20049;-55
2023/09/22 05:59:32;;;;;;;2.75;0.75;;;;;;;13.94;100.00;96715.41;18559376;32;20056;-55
2023/09/22 06:09:35;;;;;;;2.92;0.93;;;;;;;13.99;100.00;96714.44;18562937;32;20089;-56
2023/09/22 06:19:39;;;;;;;2.05;0.57;;;;;;;14.02;100.00;96708.41;18570484;32;20065;-55
2023/09/22 06:29:42;;;;;;;;;;;;;;;13.97;100.00;96730.28;18555611;31;20038;-56
2023/09/22 06:39:45;;;;;;;1.90;0.95;;;;;;;13.86;100.00;96760.44;18570049;32;19962;-56
2023/09/22 06:49:53;;;;;;;4.70;1.30;;;;;;;13.90;100.00;96755.97;18554793;32;20112;-56
2023/09/22 06:59:58;;;;;;;1.98;0.65;;;;;;;14.04;100.00;96790.41;18568207;32;20060;-56
2023/09/22 07:10:03;;;;;;;2.12;0.57;;;;;;;14.09;100.00;96794.88;18567635;32;20056;-56
2023/09/22 07:20:09;;;;;;;1.50;0.80;;;;;;;14.14;100.00;96779.25;18551848;32;20478;-56
2023/09/22 07:30:13;;;;;;;3.70;0.40;;;;;;;14.15;100.00;96766.47;18566202;32;20120;-55
2023/09/22 07:40:16;;;;;;;1.33;0.30;;;;;;;14.32;100.00;96779.28;18565859;32;20478;-56
2023/09/22 07:50:20;;;;;;;1.10;0.43;;;;;;;14.48;100.00;96810.38;18564854;32;20068;-56
2023/09/22 08:00:26;;;;;;;0.60;0.40;;;;;;;14.41;100.00;96808.09;18564859;32;20056;-56
2023/09/22 08:10:30;;;;;;;2.05;0.55;;;;;;;14.51;100.00;96796.16;18563773;32;20048;-56
2023/09/22 08:20:34;;;;;;;1.12;0.40;;;;;;;14.79;100.00;96809.50;18548598;31;20083;-57
2023/09/22 08:30:37;;;;;;;1.48;0.50;;;;;;;15.16;100.00;96811.91;18548229;32;20082;-56
2023/09/22 08:40:40;;;;;;;0.95;0.40;;;;;;;15.52;100.00;96816.19;18562067;32;20064;-56
2023/09/22 08:50:45;;;;;;;0.87;0.40;;;;;;;15.76;100.00;96816.47;18547311;32;20067;-56
2023/09/22 09:00:51;;;;;;;1.73;0.47;;;;;;;16.12;100.00;96833.53;18561625;32;20090;-56
2023/09/22 09:10:57;;;;;;;2.15;0.60;;;;;;;16.17;100.00;96836.09;18560897;32;20044;-57
2023/09/22 09:21:14;;;;;;;3.22;0.60;;;;;;;16.29;100.00;96827.22;18560522;32;20086;-56
2023/09/22 09:31:20;;;;;;;4.78;0.80;;;;;;;16.40;100.00;96827.63;18560703;32;20445;-57
2023/09/22 09:41:27;;;;;;;1.98;0.70;;;;;;;16.34;100.00;96842.59;18546118;32;20069;-56
2023/09/22 09:51:38;;;;;;;1.30;0.30;;;;;;;16.48;100.00;96826.00;18571998;32;20048;-56
2023/09/22 10:01:42;;;;;;;2.75;0.70;;;;;;;16.62;100.00;96844.87;18572486;32;20053;-57
2023/09/22 10:11:48;;;;;;;1.20;0.50;;;;;;;16.77;100.00;96820.53;18571216;32;20408;-57
2023/09/22 10:21:52;;;;;;;4.53;0.80;;;;;;;16.86;100.00;96816.94;18570626;32;20105;-57
2023/09/22 10:32:16;;;;;;;0.73;0.40;;;;;;;16.97;100.00;96829.09;18570262;32;20048;-57
2023/09/22 10:42:22;;;;;;;1.20;0.60;;;;;;;17.12;100.00;96814.06;18569245;32;20060;-57
2023/09/22 10:52:26;;;;;;;3.20;0.40;;;;;;;17.11;100.00;96785.13;18568550;32;20093;-57
2023/09/22 11:02:28;;;;;;;1.83;0.40;;;;;;;17.31;100.00;96782.69;18567119;31;20508;-57
2023/09/22 11:12:31;;;;;;;1.27;0.43;;;;;;;17.27;100.00;96777.13;18567558;32;20070;-57
2023/09/22 11:22:35;;;;;;;0.77;0.30;;;;;;;17.28;100.00;96767.81;18552813;32;20135;-57
2023/09/22 11:32:38;;;;;;;2.55;0.65;;;;;;;17.79;100.00;96753.91;18566454;32;20052;-57
2023/09/22 11:42:46;;;;;;;2.53;0.77;;;;;;;18.30;100.00;96745.41;18565824;32;20071;-57
2023/09/22 11:52:50;;;;;;;3.15;0.80;;;;;;;18.73;100.00;96748.66;18564935;32;20067;-57
2023/09/22 12:02:53;;;;;;;1.47;0.80;;;;;;;18.78;100.00;96751.94;18564346;32;20064;-57
2023/09/22 12:12:55;;;;;;;2.00;0.60;;;;;;;18.84;100.00;96757.19;18536807;32;20056;-57
2023/09/22 12:22:58;;;;;;;1.45;0.50;;;;;;;18.81;100.00;96747.72;18563382;32;20428;-56
2023/09/22 12:33:01;;;;;;;1.67;0.60;;;;;;;18.66;100.00;96740.22;18562342;32;20040;-56
2023/09/22 12:43:05;;;;;;;1.98;0.75;;;;;;;18.57;100.00;96726.69;18562191;32;20116;-57
2023/09/22 12:53:08;;;;;;;1.00;0.40;;;;;;;19.20;100.00;96725.34;18561563;31;20060;-56
2023/09/22 13:03:11;;;;;;;1.60;0.33;;;;;;;19.09;100.00;96717.63;18561202;32;20111;-56
2023/09/22 13:13:15;;;;;;;1.85;0.57;;;;;;;18.97;100.00;96709.47;18560795;32;20048;-56
2023/09/22 13:23:18;;;;;;;;;;;;;;;18.76;100.00;96710.44;18546167;32;20048;-56
2023/09/22 13:33:23;;;;;;;1.40;0.60;;;;;;;19.16;100.00;96708.00;18560499;32;19940;-56
2023/09/22 13:43:27;;;;;;;;;;;;;;;19.10;100.00;96713.75;18532709;32;20064;-56
2023/09/22 13:53:30;;;;;;;1.33;0.50;;;;;;;18.78;100.00;96715.56;18559456;32;20360;-56
2023/09/22 14:03:34;;;;;;;1.65;0.60;;;;;;;18.67;100.00;96708.97;18559116;32;20083;-57
2023/09/22 14:13:38;;;;;;;1.60;0.77;;;;;;;18.68;100.00;96714.09;18544998;32;20080;-56
2023/09/22 14:23:41;;;;;;;1.65;0.50;;;;;;;18.50;100.00;96693.59;18558485;32;20133;-56
2023/09/22 14:33:44;;;;;;;1.30;0.50;;;;;;;18.52;100.00;96694.84;18565651;32;20049;-56
2023/09/22 14:43:47;;;;;;;1.25;0.65;;;;;;;18.38;100.00;96697.19;18555360;32;20061;-56
2023/09/22 14:53:51;;;;;;;1.23;0.43;;;;;;;18.20;100.00;96691.97;18502308;32;20467;-56
2023/09/22 15:03:56;;;;;;;1.75;0.40;;;;;;;18.36;100.00;96700.25;18503350;32;20080;-56
2023/09/22 15:13:59;;;;;;;1.47;0.40;;;;;;;18.26;100.00;96711.66;18503292;32;20471;-56
2023/09/22 15:24:02;;;;;;;1.10;0.50;;;;;;;18.42;100.00;96715.28;18500813;32;20114;-56
2023/09/22 15:34:04;;;;;;;0.90;0.30;;;;;;;18.23;100.00;96728.78;18500568;32;20041;-57
2023/09/22 15:44:08;;;;;;;2.00;0.60;;;;;;;18.00;100.00;96736.66;18499037;32;20174;-57
2023/09/22 15:54:12;;;;;;;1.87;0.70;;;;;;;17.83;100.00;96760.31;18557732;32;20036;-56
2023/09/22 16:04:17;;;;;;;3.07;0.53;;;;;;;17.63;100.00;96781.09;18550321;32;20087;-56
2023/09/22 16:14:22;;;;;;;0.68;0.40;;;;;;;17.35;100.00;96794.56;18549779;32;20195;-56
2023/09/22 16:24:26;;;;;;;1.40;0.37;;;;;;;16.94;100.00;96825.09;18549282;32;20377;-56
2023/09/22 16:34:29;;;;;;;;;;;;;;;16.66;100.00;96832.94;18549070;32;20440;-56
2023/09/22 16:44:34;;;;;;;3.42;0.57;;;;;;;16.33;100.00;96843.72;18562503;32;20339;-56
2023/09/22 16:54:39;;;;;;;1.57;0.40;;;;;;;15.97;100.00;96885.91;18561327;32;20061;-56
2023/09/22 17:04:42;;;;;;;1.95;0.55;;;;;;;15.67;100.00;96921.19;18561182;32;20158;-56
2023/09/22 17:14:46;;;;;;;0.70;0.20;;;;;;;15.38;100.00;96947.13;18560861;32;20032;-56
2023/09/22 17:24:49;;;;;;;0.90;0.30;;;;;;;15.12;100.00;96958.00;18560077;32;20140;-56
2023/09/22 17:34:52;;;;;;;1.07;0.30;;;;;;;14.69;100.00;96976.59;18546248;32;20052;-56
2023/09/22 17:44:55;;;;;;;3.17;0.60;;;;;;;14.34;100.00;96981.81;18559711;32;20096;-57
2023/09/22 17:54:59;;;;;;;5.32;0.40;;;;;;;14.11;100.00;96989.19;18559320;32;20094;-56
2023/09/22 18:05:03;;;;;;;2.15;0.40;;;;;;;13.95;100.00;96982.50;18548213;32;20056;-56
2023/09/22 18:15:06;;;;;;;1.77;0.30;;;;;;;13.76;100.00;96999.81;18571328;32;20104;-56
2023/09/22 18:25:10;;;;;;;2.53;0.55;;;;;;;13.62;100.00;97001.75;18570634;32;20441;-56
2023/09/22 18:35:14;;;;;;;5.33;0.60;;;;;;;13.36;100.00;97019.41;18569981;32;20052;-56
2023/09/22 18:45:16;;;;;;;2.42;0.47;;;;;;;13.26;100.00;97035.09;18556178;32;20045;-56
2023/09/22 18:55:19;;;;;;;2.10;0.20;;;;;;;13.13;100.00;97040.22;18568651;32;20089;-56
2023/09/22 19:05:24;;;;;;;1.23;0.40;;;;;;;13.06;100.00;97064.25;18554151;32;20452;-59
2023/09/22 19:15:27;;;;;;;1.80;0.40;;;;;;;13.03;100.00;97078.41;18566623;32;20143;-59
2023/09/22 19:25:39;;;;;;;0.35;0.10;;;;;;;12.98;100.00;97101.03;18567067;32;20053;-59
2023/09/22 19:35:42;;;;;;;5.45;0.68;;;;;;;12.96;100.00;97121.41;18566366;32;20400;-57
2023/09/22 19:45:45;;;;;;;1.27;0.32;;;;;;;12.92;100.00;97136.69;18565294;32;20072;-57
2023/09/22 19:55:49;;;;;;;3.05;0.50;;;;;;;12.88;100.00;97158.16;18565280;32;20065;-57
2023/09/22 20:05:52;;;;;;;6.53;0.73;;;;;;;12.87;100.00;97156.59;18550141;31;20100;-58
2023/09/22 20:15:58;;;;;;;2.77;0.40;;;;;;;12.83;100.00;97174.56;18550062;32;20052;-57
2023/09/22 20:26:05;;;;;;;4.78;0.77;;;;;;;12.81;100.00;97188.44;18563103;32;20107;-57
2023/09/22 20:36:12;;;;;;;6.20;0.40;;;;;;;12.79;100.00;97195.25;18549250;32;20111;-58
2023/09/22 20:46:15;;;;;;;3.95;0.50;;;;;;;12.76;100.00;97202.06;18561853;32;20041;-58
2023/09/22 20:56:17;;;;;;;3.05;0.90;;;;;;;12.80;100.00;97222.06;18562181;32;20069;-58
2023/09/22 21:06:19;;;;;;;1.77;0.35;;;;;;;12.80;100.00;97240.25;18561011;32;20474;-57
2023/09/22 21:16:22;;;;;;;3.78;0.68;;;;;;;12.84;100.00;97265.69;18561269;32;20100;-58
2023/09/22 21:26:25;;;;;;;4.43;0.50;;;;;;;12.93;100.00;97284.84;18560395;32;20120;-58
2023/09/22 21:36:28;;;;;;;4.72;0.68;;;;;;;12.96;100.00;97305.94;18560018;32;20049;-58
2023/09/22 21:46:31;;;;;;;4.72;1.00;;;;;;;12.91;100.00;97314.16;18571551;32;20070;-58
2023/09/22 21:56:33;;;;;;;3.83;0.57;;;;;;;12.89;100.00;97325.31;18572366;32;20073;-58
2023/09/22 22:06:42;;;;;;;4.32;0.47;;;;;;;12.82;100.00;97339.22;18572368;32;20052;-58
2023/09/22 22:16:45;;;;;;;3.78;0.52;;;;;;;12.76;100.00;97343.13;18571435;32;20067;-58
2023/09/22 22:26:57;;;;;;;1.85;0.25;;;;;;;12.71;100.00;97351.31;18570452;32;20082;-58
2023/09/22 22:37:00;;;;;;;1.95;0.50;;;;;;;12.62;100.00;97358.50;18570209;32;20067;-58
2023/09/22 22:47:07;;;;;;;4.10;0.50;;;;;;;12.56;100.00;97381.38;18554697;32;20079;-58
2023/09/22 22:57:10;;;;;;;1.17;0.30;;;;;;;12.43;100.00;97382.84;18568833;32;20096;-58
2023/09/22 23:07:12;;;;;;;2.67;0.70;;;;;;;12.30;100.00;97387.88;18567990;32;20069;-58
2023/09/22 23:17:15;;;;;;;1.95;0.55;;;;;;;12.20;100.00;97401.56;18567642;32;20101;-58
2023/09/22 23:27:18;;;;;;;4.80;0.47;;;;;;;12.10;100.00;97413.31;18567514;32;20068;-58
2023/09/22 23:37:20;;;;;;;5.65;0.62;;;;;;;12.03;100.00;97424.47;18566507;32;20360;-58
2023/09/22 23:47:25;;;;;;;1.62;0.40;;;;;;;11.95;100.00;97421.56;18551298;32;20076;-58
2023/09/22 23:57:28;;;;;;;2.00;0.40;;;;;;;11.83;100.00;97424.63;18565195;32;20071;-58
